sensor_id;sensor_type;location;lat;lon;timestamp;P1;durP1;ratioP1;P2;durP2;ratioP2
20861;SDS011;10591;52.532;13.348;2022-08-19T00:00:15;13.28;;;11.88;;
20861;SDS011;10591;52.532;13.348;2022-08-19T00:02:47;12.95;;;11.68;;
20861;SDS011;10591;52.532;13.348;2022-08-19T00:05:18;12.35;;;11.22;;
20861;SDS011;10591;52.532;13.348;2022-08-19T00:07:50;13.55;;;12.15;;
20861;SDS011;10591;52.532;13.348;2022-08-19T00:10:21;13.05;;;11.78;;
20861;SDS011;10591;52.532;13.348;2022-08-19T00:12:53;11.97;;;10.78;;
20861;SDS011;10591;52.532;13.348;2022-08-19T00:15:23;13.58;;;12.37;;
20861;SDS011;10591;52.532;13.348;2022-08-19T00:17:54;13.00;;;11.70;;
20861;SDS011;10591;52.532;13.348;2022-08-19T00:20:24;13.75;;;12.50;;
20861;SDS011;10591;52.532;13.348;2022-08-19T00:22:55;13.15;;;11.90;;
20861;SDS011;10591;52.532;13.348;2022-08-19T00:25:28;14.18;;;12.88;;
20861;SDS011;10591;52.532;13.348;2022-08-19T00:27:58;13.30;;;11.73;;
20861;SDS011;10591;52.532;13.348;2022-08-19T00:30:29;14.05;;;12.58;;
20861;SDS011;10591;52.532;13.348;2022-08-19T00:32:59;13.70;;;12.37;;
20861;SDS011;10591;52.532;13.348;2022-08-19T00:35:30;13.38;;;12.07;;
20861;SDS011;10591;52.532;13.348;2022-08-19T00:38:02;14.03;;;12.73;;
20861;SDS011;10591;52.532;13.348;2022-08-19T00:40:34;13.15;;;11.85;;
20861;SDS011;10591;52.532;13.348;2022-08-19T00:43:13;12.60;;;11.35;;
20861;SDS011;10591;52.532;13.348;2022-08-19T00:45:41;13.80;;;12.55;;
20861;SDS011;10591;52.532;13.348;2022-08-19T00:48:12;12.53;;;11.40;;
20861;SDS011;10591;52.532;13.348;2022-08-19T00:50:45;13.10;;;11.80;;
20861;SDS011;10591;52.532;13.348;2022-08-19T00:53:20;12.65;;;11.40;;
20861;SDS011;10591;52.532;13.348;2022-08-19T00:55:56;19.50;;;13.20;;
20861;SDS011;10591;52.532;13.348;2022-08-19T00:58:29;16.62;;;13.58;;
20861;SDS011;10591;52.532;13.348;2022-08-19T01:01:02;15.55;;;13.98;;
20861;SDS011;10591;52.532;13.348;2022-08-19T01:03:38;16.48;;;14.45;;
20861;SDS011;10591;52.532;13.348;2022-08-19T01:06:11;16.65;;;14.95;;
20861;SDS011;10591;52.532;13.348;2022-08-19T01:08:46;18.23;;;15.60;;
20861;SDS011;10591;52.532;13.348;2022-08-19T01:11:17;18.07;;;16.27;;
20861;SDS011;10591;52.532;13.348;2022-08-19T01:13:48;17.48;;;15.78;;
20861;SDS011;10591;52.532;13.348;2022-08-19T01:16:22;18.95;;;16.80;;
20861;SDS011;10591;52.532;13.348;2022-08-19T01:18:54;18.70;;;16.90;;
20861;SDS011;10591;52.532;13.348;2022-08-19T01:21:30;20.27;;;18.27;;
20861;SDS011;10591;52.532;13.348;2022-08-19T01:24:03;19.77;;;17.70;;
20861;SDS011;10591;52.532;13.348;2022-08-19T01:26:37;20.90;;;18.70;;
20861;SDS011;10591;52.532;13.348;2022-08-19T01:29:12;20.43;;;18.25;;
20861;SDS011;10591;52.532;13.348;2022-08-19T01:31:43;21.62;;;19.42;;
20861;SDS011;10591;52.532;13.348;2022-08-19T01:34:13;25.05;;;19.75;;
20861;SDS011;10591;52.532;13.348;2022-08-19T01:36:45;21.57;;;19.37;;
20861;SDS011;10591;52.532;13.348;2022-08-19T01:39:23;21.40;;;19.20;;
20861;SDS011;10591;52.532;13.348;2022-08-19T01:41:51;23.00;;;20.35;;
20861;SDS011;10591;52.532;13.348;2022-08-19T01:44:23;23.52;;;21.00;;
20861;SDS011;10591;52.532;13.348;2022-08-19T01:46:53;23.95;;;21.35;;
20861;SDS011;10591;52.532;13.348;2022-08-19T01:49:24;24.72;;;22.07;;
20861;SDS011;10591;52.532;13.348;2022-08-19T01:51:55;25.40;;;22.73;;
20861;SDS011;10591;52.532;13.348;2022-08-19T01:54:28;24.20;;;21.65;;
20861;SDS011;10591;52.532;13.348;2022-08-19T01:57:02;25.02;;;22.37;;
20861;SDS011;10591;52.532;13.348;2022-08-19T01:59:34;24.72;;;21.80;;
20861;SDS011;10591;52.532;13.348;2022-08-19T02:02:05;28.73;;;22.82;;
20861;SDS011;10591;52.532;13.348;2022-08-19T02:04:37;23.92;;;21.42;;
20861;SDS011;10591;52.532;13.348;2022-08-19T02:07:08;25.17;;;22.30;;
20861;SDS011;10591;52.532;13.348;2022-08-19T02:09:38;28.30;;;22.67;;
20861;SDS011;10591;52.532;13.348;2022-08-19T02:12:09;25.85;;;22.82;;
20861;SDS011;10591;52.532;13.348;2022-08-19T02:14:40;25.25;;;22.07;;
20861;SDS011;10591;52.532;13.348;2022-08-19T02:17:10;23.42;;;21.00;;
20861;SDS011;10591;52.532;13.348;2022-08-19T02:19:41;23.15;;;20.70;;
20861;SDS011;10591;52.532;13.348;2022-08-19T02:22:11;23.92;;;21.27;;
20861;SDS011;10591;52.532;13.348;2022-08-19T02:24:42;26.33;;;20.37;;
20861;SDS011;10591;52.532;13.348;2022-08-19T02:27:12;23.32;;;20.90;;
20861;SDS011;10591;52.532;13.348;2022-08-19T02:29:48;22.05;;;19.73;;
20861;SDS011;10591;52.532;13.348;2022-08-19T02:32:19;23.62;;;21.00;;
20861;SDS011;10591;52.532;13.348;2022-08-19T02:34:50;23.42;;;21.00;;
20861;SDS011;10591;52.532;13.348;2022-08-19T02:37:20;22.20;;;19.90;;
20861;SDS011;10591;52.532;13.348;2022-08-19T02:40:08;24.50;;;21.82;;
20861;SDS011;10591;52.532;13.348;2022-08-19T02:42:40;24.30;;;21.70;;
20861;SDS011;10591;52.532;13.348;2022-08-19T02:45:12;26.27;;;22.10;;
20861;SDS011;10591;52.532;13.348;2022-08-19T02:47:43;26.00;;;21.85;;
20861;SDS011;10591;52.532;13.348;2022-08-19T02:50:14;25.52;;;22.75;;
20861;SDS011;10591;52.532;13.348;2022-08-19T02:52:46;25.20;;;22.52;;
20861;SDS011;10591;52.532;13.348;2022-08-19T02:55:17;24.52;;;21.93;;
20861;SDS011;10591;52.532;13.348;2022-08-19T02:57:49;27.22;;;23.52;;
20861;SDS011;10591;52.532;13.348;2022-08-19T03:00:20;25.45;;;22.73;;
20861;SDS011;10591;52.532;13.348;2022-08-19T03:02:52;26.02;;;22.67;;
20861;SDS011;10591;52.532;13.348;2022-08-19T03:05:23;24.75;;;22.00;;
20861;SDS011;10591;52.532;13.348;2022-08-19T03:07:56;28.15;;;22.87;;
20861;SDS011;10591;52.532;13.348;2022-08-19T03:10:27;27.87;;;24.12;;
20861;SDS011;10591;52.532;13.348;2022-08-19T03:12:58;32.83;;;27.45;;
20861;SDS011;10591;52.532;13.348;2022-08-19T03:15:32;29.00;;;24.23;;
20861;SDS011;10591;52.532;13.348;2022-08-19T03:18:03;30.62;;;24.45;;
20861;SDS011;10591;52.532;13.348;2022-08-19T03:20:40;25.97;;;23.07;;
20861;SDS011;10591;52.532;13.348;2022-08-19T03:23:12;28.77;;;24.55;;
20861;SDS011;10591;52.532;13.348;2022-08-19T03:25:45;28.20;;;25.20;;
20861;SDS011;10591;52.532;13.348;2022-08-19T03:28:18;28.67;;;25.08;;
20861;SDS011;10591;52.532;13.348;2022-08-19T03:31:00;28.62;;;25.57;;
20861;SDS011;10591;52.532;13.348;2022-08-19T03:33:34;29.80;;;25.12;;
20861;SDS011;10591;52.532;13.348;2022-08-19T03:38:45;31.23;;;26.42;;
20861;SDS011;10591;52.532;13.348;2022-08-19T03:41:24;27.80;;;24.80;;
20861;SDS011;10591;52.532;13.348;2022-08-19T03:43:59;25.95;;;23.15;;
20861;SDS011;10591;52.532;13.348;2022-08-19T03:46:31;25.80;;;23.07;;
20861;SDS011;10591;52.532;13.348;2022-08-19T03:49:03;25.72;;;23.05;;
20861;SDS011;10591;52.532;13.348;2022-08-19T03:51:38;24.55;;;22.00;;
20861;SDS011;10591;52.532;13.348;2022-08-19T03:54:10;24.70;;;22.15;;
20861;SDS011;10591;52.532;13.348;2022-08-19T03:56:43;25.82;;;23.12;;
20861;SDS011;10591;52.532;13.348;2022-08-19T03:59:16;24.27;;;21.77;;
20861;SDS011;10591;52.532;13.348;2022-08-19T04:01:49;24.57;;;22.07;;
20861;SDS011;10591;52.532;13.348;2022-08-19T04:04:19;24.40;;;21.90;;
20861;SDS011;10591;52.532;13.348;2022-08-19T04:06:50;25.77;;;23.10;;
20861;SDS011;10591;52.532;13.348;2022-08-19T04:09:21;24.05;;;21.55;;
20861;SDS011;10591;52.532;13.348;2022-08-19T04:11:52;24.02;;;21.52;;
20861;SDS011;10591;52.532;13.348;2022-08-19T04:14:27;24.75;;;22.13;;
20861;SDS011;10591;52.532;13.348;2022-08-19T04:17:00;25.62;;;22.10;;
20861;SDS011;10591;52.532;13.348;2022-08-19T04:19:35;25.23;;;22.67;;
20861;SDS011;10591;52.532;13.348;2022-08-19T04:22:07;25.48;;;22.80;;
20861;SDS011;10591;52.532;13.348;2022-08-19T04:24:39;24.90;;;22.42;;
20861;SDS011;10591;52.532;13.348;2022-08-19T04:27:12;23.45;;;20.95;;
20861;SDS011;10591;52.532;13.348;2022-08-19T04:29:43;24.10;;;21.75;;
20861;SDS011;10591;52.532;13.348;2022-08-19T04:32:14;21.80;;;19.52;;
20861;SDS011;10591;52.532;13.348;2022-08-19T04:34:50;22.48;;;20.17;;
20861;SDS011;10591;52.532;13.348;2022-08-19T04:37:24;22.35;;;20.08;;
20861;SDS011;10591;52.532;13.348;2022-08-19T04:39:57;22.62;;;20.35;;
20861;SDS011;10591;52.532;13.348;2022-08-19T04:42:46;21.60;;;19.50;;
20861;SDS011;10591;52.532;13.348;2022-08-19T04:45:17;22.58;;;20.37;;
20861;SDS011;10591;52.532;13.348;2022-08-19T04:47:49;23.30;;;21.05;;
20861;SDS011;10591;52.532;13.348;2022-08-19T04:50:23;21.52;;;19.45;;
20861;SDS011;10591;52.532;13.348;2022-08-19T04:52:55;21.33;;;19.20;;
20861;SDS011;10591;52.532;13.348;2022-08-19T04:55:26;21.40;;;19.27;;
20861;SDS011;10591;52.532;13.348;2022-08-19T04:57:56;19.73;;;17.80;;
20861;SDS011;10591;52.532;13.348;2022-08-19T05:00:27;20.23;;;18.25;;
20861;SDS011;10591;52.532;13.348;2022-08-19T05:02:58;20.12;;;18.15;;
20861;SDS011;10591;52.532;13.348;2022-08-19T05:05:30;23.40;;;21.00;;
20861;SDS011;10591;52.532;13.348;2022-08-19T05:08:08;19.67;;;17.67;;
20861;SDS011;10591;52.532;13.348;2022-08-19T05:10:41;18.48;;;16.75;;
20861;SDS011;10591;52.532;13.348;2022-08-19T05:13:13;18.85;;;17.05;;
20861;SDS011;10591;52.532;13.348;2022-08-19T05:15:52;19.32;;;17.42;;
20861;SDS011;10591;52.532;13.348;2022-08-19T05:18:24;17.02;;;15.43;;
20861;SDS011;10591;52.532;13.348;2022-08-19T05:21:15;16.70;;;15.00;;
20861;SDS011;10591;52.532;13.348;2022-08-19T05:24:05;15.05;;;13.70;;
20861;SDS011;10591;52.532;13.348;2022-08-19T05:26:38;15.10;;;13.70;;
20861;SDS011;10591;52.532;13.348;2022-08-19T05:29:10;15.08;;;13.13;;
20861;SDS011;10591;52.532;13.348;2022-08-19T05:31:41;14.23;;;12.80;;
20861;SDS011;10591;52.532;13.348;2022-08-19T05:34:12;13.50;;;12.35;;
20861;SDS011;10591;52.532;13.348;2022-08-19T05:36:44;14.30;;;13.00;;
20861;SDS011;10591;52.532;13.348;2022-08-19T05:39:17;14.45;;;13.15;;
20861;SDS011;10591;52.532;13.348;2022-08-19T05:41:59;13.60;;;12.50;;
20861;SDS011;10591;52.532;13.348;2022-08-19T05:44:28;13.80;;;12.50;;
20861;SDS011;10591;52.532;13.348;2022-08-19T05:47:00;13.62;;;12.43;;
20861;SDS011;10591;52.532;13.348;2022-08-19T05:49:33;14.55;;;13.15;;
20861;SDS011;10591;52.532;13.348;2022-08-19T05:52:05;14.03;;;12.73;;
20861;SDS011;10591;52.532;13.348;2022-08-19T05:54:40;15.35;;;13.95;;
20861;SDS011;10591;52.532;13.348;2022-08-19T05:57:15;15.55;;;14.00;;
20861;SDS011;10591;52.532;13.348;2022-08-19T05:59:46;15.45;;;13.75;;
20861;SDS011;10591;52.532;13.348;2022-08-19T06:02:20;14.30;;;13.00;;
20861;SDS011;10591;52.532;13.348;2022-08-19T06:04:50;14.85;;;13.35;;
20861;SDS011;10591;52.532;13.348;2022-08-19T06:07:21;14.18;;;12.88;;
20861;SDS011;10591;52.532;13.348;2022-08-19T06:09:51;14.38;;;13.13;;
20861;SDS011;10591;52.532;13.348;2022-08-19T06:12:24;13.72;;;12.45;;
20861;SDS011;10591;52.532;13.348;2022-08-19T06:14:56;14.65;;;13.35;;
20861;SDS011;10591;52.532;13.348;2022-08-19T06:17:28;14.58;;;13.08;;
20861;SDS011;10591;52.532;13.348;2022-08-19T06:20:00;15.13;;;13.72;;
20861;SDS011;10591;52.532;13.348;2022-08-19T06:22:37;16.25;;;14.75;;
20861;SDS011;10591;52.532;13.348;2022-08-19T06:25:08;15.60;;;14.20;;
20861;SDS011;10591;52.532;13.348;2022-08-19T06:27:39;15.25;;;13.70;;
20861;SDS011;10591;52.532;13.348;2022-08-19T06:30:11;15.48;;;13.98;;
20861;SDS011;10591;52.532;13.348;2022-08-19T06:32:42;15.50;;;14.00;;
20861;SDS011;10591;52.532;13.348;2022-08-19T06:35:13;15.80;;;14.23;;
20861;SDS011;10591;52.532;13.348;2022-08-19T06:37:44;15.28;;;13.98;;
20861;SDS011;10591;52.532;13.348;2022-08-19T06:40:15;15.30;;;13.90;;
20861;SDS011;10591;52.532;13.348;2022-08-19T06:42:46;14.07;;;12.78;;
20861;SDS011;10591;52.532;13.348;2022-08-19T06:45:18;15.35;;;13.78;;
20861;SDS011;10591;52.532;13.348;2022-08-19T06:47:51;15.70;;;14.30;;
20861;SDS011;10591;52.532;13.348;2022-08-19T06:50:25;15.60;;;14.07;;
20861;SDS011;10591;52.532;13.348;2022-08-19T06:52:55;16.30;;;14.70;;
20861;SDS011;10591;52.532;13.348;2022-08-19T06:55:29;16.73;;;15.08;;
20861;SDS011;10591;52.532;13.348;2022-08-19T06:58:02;17.65;;;15.85;;
20861;SDS011;10591;52.532;13.348;2022-08-19T07:00:33;17.17;;;15.45;;
20861;SDS011;10591;52.532;13.348;2022-08-19T07:03:04;17.40;;;15.90;;
20861;SDS011;10591;52.532;13.348;2022-08-19T07:05:40;17.32;;;15.72;;
20861;SDS011;10591;52.532;13.348;2022-08-19T07:08:13;17.30;;;15.70;;
20861;SDS011;10591;52.532;13.348;2022-08-19T07:10:46;18.10;;;16.30;;
20861;SDS011;10591;52.532;13.348;2022-08-19T07:13:17;17.25;;;15.55;;
20861;SDS011;10591;52.532;13.348;2022-08-19T07:15:48;17.37;;;15.72;;
20861;SDS011;10591;52.532;13.348;2022-08-19T07:18:19;19.37;;;17.50;;
20861;SDS011;10591;52.532;13.348;2022-08-19T07:21:04;17.52;;;15.93;;
20861;SDS011;10591;52.532;13.348;2022-08-19T07:23:39;16.95;;;15.35;;
20861;SDS011;10591;52.532;13.348;2022-08-19T07:26:13;17.77;;;15.95;;
20861;SDS011;10591;52.532;13.348;2022-08-19T07:28:45;16.75;;;15.25;;
20861;SDS011;10591;52.532;13.348;2022-08-19T07:31:20;17.62;;;15.28;;
20861;SDS011;10591;52.532;13.348;2022-08-19T07:33:52;17.32;;;15.72;;
20861;SDS011;10591;52.532;13.348;2022-08-19T07:36:26;17.52;;;16.02;;
20861;SDS011;10591;52.532;13.348;2022-08-19T07:39:00;17.92;;;16.25;;
20861;SDS011;10591;52.532;13.348;2022-08-19T07:41:34;18.48;;;16.67;;
20861;SDS011;10591;52.532;13.348;2022-08-19T07:44:06;18.10;;;16.40;;
20861;SDS011;10591;52.532;13.348;2022-08-19T07:46:39;19.45;;;17.55;;
20861;SDS011;10591;52.532;13.348;2022-08-19T07:49:14;18.67;;;17.07;;
20861;SDS011;10591;52.532;13.348;2022-08-19T07:51:50;19.32;;;17.52;;
20861;SDS011;10591;52.532;13.348;2022-08-19T07:54:25;18.92;;;17.15;;
20861;SDS011;10591;52.532;13.348;2022-08-19T07:56:57;18.37;;;16.67;;
20861;SDS011;10591;52.532;13.348;2022-08-19T07:59:27;18.55;;;16.65;;
20861;SDS011;10591;52.532;13.348;2022-08-19T08:01:58;19.07;;;16.93;;
20861;SDS011;10591;52.532;13.348;2022-08-19T08:04:30;19.67;;;17.87;;
20861;SDS011;10591;52.532;13.348;2022-08-19T08:07:19;17.85;;;16.25;;
20861;SDS011;10591;52.532;13.348;2022-08-19T08:10:09;19.10;;;17.15;;
20861;SDS011;10591;52.532;13.348;2022-08-19T08:12:42;20.17;;;18.27;;
20861;SDS011;10591;52.532;13.348;2022-08-19T08:15:15;19.02;;;17.17;;
20861;SDS011;10591;52.532;13.348;2022-08-19T08:17:47;19.95;;;18.10;;
20861;SDS011;10591;52.532;13.348;2022-08-19T08:20:19;20.35;;;18.45;;
20861;SDS011;10591;52.532;13.348;2022-08-19T08:22:50;19.52;;;17.52;;
20861;SDS011;10591;52.532;13.348;2022-08-19T08:25:39;20.37;;;18.25;;
20861;SDS011;10591;52.532;13.348;2022-08-19T08:28:09;20.52;;;17.85;;
20861;SDS011;10591;52.532;13.348;2022-08-19T08:30:41;19.70;;;17.57;;
20861;SDS011;10591;52.532;13.348;2022-08-19T08:33:17;19.48;;;17.77;;
20861;SDS011;10591;52.532;13.348;2022-08-19T08:35:51;19.52;;;17.60;;
20861;SDS011;10591;52.532;13.348;2022-08-19T08:38:22;18.98;;;17.27;;
20861;SDS011;10591;52.532;13.348;2022-08-19T08:40:56;20.15;;;18.25;;
20861;SDS011;10591;52.532;13.348;2022-08-19T08:43:33;19.40;;;17.40;;
20861;SDS011;10591;52.532;13.348;2022-08-19T08:46:13;20.02;;;18.00;;
20861;SDS011;10591;52.532;13.348;2022-08-19T08:49:04;20.12;;;18.00;;
20861;SDS011;10591;52.532;13.348;2022-08-19T08:51:46;19.80;;;17.85;;
20861;SDS011;10591;52.532;13.348;2022-08-19T08:54:20;19.23;;;17.32;;
20861;SDS011;10591;52.532;13.348;2022-08-19T08:56:52;19.80;;;17.98;;
20861;SDS011;10591;52.532;13.348;2022-08-19T08:59:28;18.70;;;16.90;;
20861;SDS011;10591;52.532;13.348;2022-08-19T09:02:00;18.82;;;17.02;;
20861;SDS011;10591;52.532;13.348;2022-08-19T09:04:33;19.35;;;17.52;;
20861;SDS011;10591;52.532;13.348;2022-08-19T09:07:26;19.20;;;17.27;;
20861;SDS011;10591;52.532;13.348;2022-08-19T09:10:04;18.17;;;16.32;;
20861;SDS011;10591;52.532;13.348;2022-08-19T09:12:44;18.75;;;16.85;;
20861;SDS011;10591;52.532;13.348;2022-08-19T09:15:28;18.70;;;16.97;;
20861;SDS011;10591;52.532;13.348;2022-08-19T09:18:03;18.37;;;16.60;;
20861;SDS011;10591;52.532;13.348;2022-08-19T09:20:35;17.57;;;16.07;;
20861;SDS011;10591;52.532;13.348;2022-08-19T09:23:07;18.15;;;16.40;;
20861;SDS011;10591;52.532;13.348;2022-08-19T09:25:39;17.80;;;16.07;;
20861;SDS011;10591;52.532;13.348;2022-08-19T09:28:10;16.77;;;15.38;;
20861;SDS011;10591;52.532;13.348;2022-08-19T09:30:42;17.12;;;15.55;;
20861;SDS011;10591;52.532;13.348;2022-08-19T09:33:13;17.82;;;16.23;;
20861;SDS011;10591;52.532;13.348;2022-08-19T09:35:47;18.65;;;16.95;;
20861;SDS011;10591;52.532;13.348;2022-08-19T09:38:20;17.45;;;15.83;;
20861;SDS011;10591;52.532;13.348;2022-08-19T09:40:51;16.90;;;15.45;;
20861;SDS011;10591;52.532;13.348;2022-08-19T09:43:21;17.77;;;16.12;;
20861;SDS011;10591;52.532;13.348;2022-08-19T09:45:55;17.65;;;16.05;;
20861;SDS011;10591;52.532;13.348;2022-08-19T09:48:26;18.67;;;16.70;;
20861;SDS011;10591;52.532;13.348;2022-08-19T09:51:04;17.80;;;16.20;;
20861;SDS011;10591;52.532;13.348;2022-08-19T09:53:38;18.23;;;16.52;;
20861;SDS011;10591;52.532;13.348;2022-08-19T09:56:09;18.40;;;16.70;;
20861;SDS011;10591;52.532;13.348;2022-08-19T09:58:40;18.95;;;17.35;;
20861;SDS011;10591;52.532;13.348;2022-08-19T10:01:23;19.05;;;17.23;;
20861;SDS011;10591;52.532;13.348;2022-08-19T10:03:54;19.02;;;17.00;;
20861;SDS011;10591;52.532;13.348;2022-08-19T10:06:23;17.75;;;16.02;;
20861;SDS011;10591;52.532;13.348;2022-08-19T10:08:59;17.85;;;16.20;;
20861;SDS011;10591;52.532;13.348;2022-08-19T10:11:34;16.60;;;15.03;;
20861;SDS011;10591;52.532;13.348;2022-08-19T10:14:07;18.02;;;16.32;;
20861;SDS011;10591;52.532;13.348;2022-08-19T10:16:38;18.05;;;16.35;;
20861;SDS011;10591;52.532;13.348;2022-08-19T10:19:10;18.42;;;16.73;;
20861;SDS011;10591;52.532;13.348;2022-08-19T10:21:41;18.20;;;16.48;;
20861;SDS011;10591;52.532;13.348;2022-08-19T10:24:14;17.20;;;15.70;;
20861;SDS011;10591;52.532;13.348;2022-08-19T10:26:46;17.65;;;15.95;;
20861;SDS011;10591;52.532;13.348;2022-08-19T10:29:19;17.87;;;16.17;;
20861;SDS011;10591;52.532;13.348;2022-08-19T10:31:52;17.07;;;15.58;;
20861;SDS011;10591;52.532;13.348;2022-08-19T10:34:24;17.32;;;15.80;;
20861;SDS011;10591;52.532;13.348;2022-08-19T10:36:57;17.25;;;15.65;;
20861;SDS011;10591;52.532;13.348;2022-08-19T10:39:30;17.98;;;16.17;;
20861;SDS011;10591;52.532;13.348;2022-08-19T10:42:09;17.55;;;15.88;;
20861;SDS011;10591;52.532;13.348;2022-08-19T10:44:38;17.45;;;15.75;;
20861;SDS011;10591;52.532;13.348;2022-08-19T10:47:09;18.95;;;17.05;;
20861;SDS011;10591;52.532;13.348;2022-08-19T10:49:41;18.27;;;16.57;;
20861;SDS011;10591;52.532;13.348;2022-08-19T10:52:31;18.82;;;17.02;;
20861;SDS011;10591;52.532;13.348;2022-08-19T10:55:04;18.20;;;16.55;;
20861;SDS011;10591;52.532;13.348;2022-08-19T10:57:55;18.73;;;16.97;;
20861;SDS011;10591;52.532;13.348;2022-08-19T11:00:30;18.50;;;16.70;;
20861;SDS011;10591;52.532;13.348;2022-08-19T11:03:01;18.23;;;16.52;;
20861;SDS011;10591;52.532;13.348;2022-08-19T11:05:31;17.48;;;15.78;;
20861;SDS011;10591;52.532;13.348;2022-08-19T11:08:04;18.42;;;16.60;;
20861;SDS011;10591;52.532;13.348;2022-08-19T11:10:41;17.98;;;16.37;;
20861;SDS011;10591;52.532;13.348;2022-08-19T11:13:14;18.07;;;16.37;;
20861;SDS011;10591;52.532;13.348;2022-08-19T11:15:45;16.97;;;15.38;;
20861;SDS011;10591;52.532;13.348;2022-08-19T11:18:16;16.57;;;15.08;;
20861;SDS011;10591;52.532;13.348;2022-08-19T11:20:46;16.87;;;15.32;;
20861;SDS011;10591;52.532;13.348;2022-08-19T11:23:17;16.15;;;14.73;;
20861;SDS011;10591;52.532;13.348;2022-08-19T11:25:49;16.37;;;14.98;;
20861;SDS011;10591;52.532;13.348;2022-08-19T11:28:20;16.17;;;14.47;;
20861;SDS011;10591;52.532;13.348;2022-08-19T11:30:50;16.32;;;14.70;;
20861;SDS011;10591;52.532;13.348;2022-08-19T11:33:21;15.45;;;13.90;;
20861;SDS011;10591;52.532;13.348;2022-08-19T11:35:52;15.90;;;14.45;;
20861;SDS011;10591;52.532;13.348;2022-08-19T11:38:23;15.55;;;14.18;;
20861;SDS011;10591;52.532;13.348;2022-08-19T11:40:55;15.40;;;13.90;;
20861;SDS011;10591;52.532;13.348;2022-08-19T11:43:27;14.63;;;13.32;;
20861;SDS011;10591;52.532;13.348;2022-08-19T11:46:03;14.33;;;12.93;;
20861;SDS011;10591;52.532;13.348;2022-08-19T11:48:36;13.80;;;12.58;;
20861;SDS011;10591;52.532;13.348;2022-08-19T11:51:08;14.13;;;12.82;;
20861;SDS011;10591;52.532;13.348;2022-08-19T11:53:44;14.18;;;12.80;;
20861;SDS011;10591;52.532;13.348;2022-08-19T11:56:15;13.75;;;12.45;;
20861;SDS011;10591;52.532;13.348;2022-08-19T11:58:47;13.53;;;12.33;;
20861;SDS011;10591;52.532;13.348;2022-08-19T12:01:19;14.20;;;12.90;;
20861;SDS011;10591;52.532;13.348;2022-08-19T12:03:52;15.28;;;13.80;;
20861;SDS011;10591;52.532;13.348;2022-08-19T12:06:28;14.25;;;12.85;;
20861;SDS011;10591;52.532;13.348;2022-08-19T12:09:03;14.75;;;13.35;;
20861;SDS011;10591;52.532;13.348;2022-08-19T12:11:36;13.15;;;12.05;;
20861;SDS011;10591;52.532;13.348;2022-08-19T12:14:10;13.38;;;12.18;;
20861;SDS011;10591;52.532;13.348;2022-08-19T12:16:43;16.05;;;14.35;;
20861;SDS011;10591;52.532;13.348;2022-08-19T12:19:16;13.98;;;12.60;;
20861;SDS011;10591;52.532;13.348;2022-08-19T12:21:50;14.65;;;13.15;;
20861;SDS011;10591;52.532;13.348;2022-08-19T12:24:23;14.07;;;12.78;;
20861;SDS011;10591;52.532;13.348;2022-08-19T12:26:53;13.70;;;12.50;;
20861;SDS011;10591;52.532;13.348;2022-08-19T12:29:27;13.10;;;11.88;;
20861;SDS011;10591;52.532;13.348;2022-08-19T12:32:00;13.20;;;12.00;;
20861;SDS011;10591;52.532;13.348;2022-08-19T12:34:32;12.75;;;11.45;;
20861;SDS011;10591;52.532;13.348;2022-08-19T12:37:05;12.10;;;11.00;;
20861;SDS011;10591;52.532;13.348;2022-08-19T12:39:37;11.63;;;10.55;;
20861;SDS011;10591;52.532;13.348;2022-08-19T12:42:11;12.00;;;10.85;;
20861;SDS011;10591;52.532;13.348;2022-08-19T12:44:43;11.65;;;10.65;;
20861;SDS011;10591;52.532;13.348;2022-08-19T12:47:14;11.90;;;10.82;;
20861;SDS011;10591;52.532;13.348;2022-08-19T12:49:48;11.65;;;10.65;;
20861;SDS011;10591;52.532;13.348;2022-08-19T12:52:22;11.88;;;10.82;;
20861;SDS011;10591;52.532;13.348;2022-08-19T12:54:56;12.25;;;11.05;;
20861;SDS011;10591;52.532;13.348;2022-08-19T12:57:27;12.23;;;11.18;;
20861;SDS011;10591;52.532;13.348;2022-08-19T13:00:05;12.55;;;11.45;;
20861;SDS011;10591;52.532;13.348;2022-08-19T13:02:48;12.85;;;11.55;;
20861;SDS011;10591;52.532;13.348;2022-08-19T13:05:16;12.73;;;11.63;;
20861;SDS011;10591;52.532;13.348;2022-08-19T13:07:51;13.53;;;12.18;;
20861;SDS011;10591;52.532;13.348;2022-08-19T13:10:28;12.45;;;11.25;;
20861;SDS011;10591;52.532;13.348;2022-08-19T13:13:04;13.48;;;12.37;;
20861;SDS011;10591;52.532;13.348;2022-08-19T13:15:36;13.62;;;12.37;;
20861;SDS011;10591;52.532;13.348;2022-08-19T13:18:09;13.83;;;12.53;;
20861;SDS011;10591;52.532;13.348;2022-08-19T13:20:41;13.78;;;12.58;;
20861;SDS011;10591;52.532;13.348;2022-08-19T13:23:13;13.48;;;12.37;;
20861;SDS011;10591;52.532;13.348;2022-08-19T13:25:43;13.08;;;11.88;;
20861;SDS011;10591;52.532;13.348;2022-08-19T13:28:15;13.58;;;12.25;;
20861;SDS011;10591;52.532;13.348;2022-08-19T13:30:47;13.62;;;12.28;;
20861;SDS011;10591;52.532;13.348;2022-08-19T13:33:36;13.55;;;12.43;;
20861;SDS011;10591;52.532;13.348;2022-08-19T13:36:07;13.88;;;12.45;;
20861;SDS011;10591;52.532;13.348;2022-08-19T13:38:38;13.43;;;12.33;;
20861;SDS011;10591;52.532;13.348;2022-08-19T13:41:09;13.32;;;12.13;;
20861;SDS011;10591;52.532;13.348;2022-08-19T13:43:41;13.62;;;12.43;;
20861;SDS011;10591;52.532;13.348;2022-08-19T13:46:11;13.53;;;12.33;;
20861;SDS011;10591;52.532;13.348;2022-08-19T13:48:45;13.60;;;12.30;;
20861;SDS011;10591;52.532;13.348;2022-08-19T13:51:19;13.50;;;12.13;;
20861;SDS011;10591;52.532;13.348;2022-08-19T13:53:50;14.28;;;13.03;;
20861;SDS011;10591;52.532;13.348;2022-08-19T13:56:22;13.45;;;12.28;;
20861;SDS011;10591;52.532;13.348;2022-08-19T13:58:54;13.95;;;12.75;;
20861;SDS011;10591;52.532;13.348;2022-08-19T14:01:27;14.20;;;12.98;;
20861;SDS011;10591;52.532;13.348;2022-08-19T14:03:59;13.78;;;12.58;;
20861;SDS011;10591;52.532;13.348;2022-08-19T14:06:30;14.20;;;12.98;;
20861;SDS011;10591;52.532;13.348;2022-08-19T14:09:01;14.68;;;13.15;;
20861;SDS011;10591;52.532;13.348;2022-08-19T14:11:32;13.38;;;12.15;;
20861;SDS011;10591;52.532;13.348;2022-08-19T14:14:02;13.05;;;11.78;;
20861;SDS011;10591;52.532;13.348;2022-08-19T14:16:33;13.35;;;12.15;;
20861;SDS011;10591;52.532;13.348;2022-08-19T14:19:03;14.38;;;13.08;;
20861;SDS011;10591;52.532;13.348;2022-08-19T14:21:36;13.65;;;12.40;;
20861;SDS011;10591;52.532;13.348;2022-08-19T14:24:08;13.18;;;12.05;;
20861;SDS011;10591;52.532;13.348;2022-08-19T14:26:39;13.70;;;12.45;;
20861;SDS011;10591;52.532;13.348;2022-08-19T14:29:10;13.85;;;12.55;;
20861;SDS011;10591;52.532;13.348;2022-08-19T14:31:41;13.48;;;12.20;;
20861;SDS011;10591;52.532;13.348;2022-08-19T14:34:12;14.25;;;13.03;;
20861;SDS011;10591;52.532;13.348;2022-08-19T14:36:43;14.20;;;12.80;;
20861;SDS011;10591;52.532;13.348;2022-08-19T14:39:16;13.40;;;12.13;;
20861;SDS011;10591;52.532;13.348;2022-08-19T14:41:46;12.93;;;11.83;;
20861;SDS011;10591;52.532;13.348;2022-08-19T14:44:17;13.53;;;12.37;;